Terminal Aerodrome Forecast
Issued by NWS

Home | Current Version | Previous Version | Text Only | Print | Product List | Glossary On
Versions: 1 2 3 4 5 6 7 8 9 10 11 12 13 14 15 16 17 18 19 20 21 22 23 24 25 26
799
FTUS43 KEAX 161003 AAA
TAFMKC
TAF AMD
KMKC 161003Z 1610/1706 08009KT 6SM -RA BR OVC003
     FM161600 19009KT P6SM VCSH BKN005
     FM170000 23007KT 6SM -SHRA BR BKN004=

USA.gov is the U.S. government's official web portal to all federal, state and local government web resources and services.